sensor_id;sensor_type;location;lat;lon;timestamp;P1;durP1;ratioP1;P2;durP2;ratioP2
41115;SDS011;26861;51.824;4.682;2022-08-01T08:37:53;2.58;;;1.20;;
41115;SDS011;26861;51.824;4.682;2022-08-01T08:40:18;0.80;;;0.80;;
41115;SDS011;26861;51.824;4.682;2022-08-01T08:42:46;4.00;;;1.10;;
41115;SDS011;26861;51.824;4.682;2022-08-01T08:45:12;4.00;;;0.90;;
41115;SDS011;26861;51.824;4.682;2022-08-01T08:47:38;5.25;;;1.17;;
41115;SDS011;26861;51.824;4.682;2022-08-01T08:50:06;2.72;;;0.93;;
41115;SDS011;26861;51.824;4.682;2022-08-01T08:52:33;5.45;;;0.68;;
41115;SDS011;26861;51.824;4.682;2022-08-01T08:55:02;4.47;;;1.02;;
41115;SDS011;26861;51.824;4.682;2022-08-01T08:57:28;2.78;;;1.08;;
41115;SDS011;26861;51.824;4.682;2022-08-01T08:59:55;2.90;;;1.10;;
41115;SDS011;26861;51.824;4.682;2022-08-01T09:02:21;2.90;;;1.00;;
41115;SDS011;26861;51.824;4.682;2022-08-01T09:04:48;2.70;;;0.93;;
41115;SDS011;26861;51.824;4.682;2022-08-01T09:07:15;2.50;;;1.00;;
41115;SDS011;26861;51.824;4.682;2022-08-01T09:09:41;4.75;;;1.30;;
41115;SDS011;26861;51.824;4.682;2022-08-01T09:12:07;4.47;;;1.17;;
41115;SDS011;26861;51.824;4.682;2022-08-01T09:14:33;5.70;;;1.50;;
41115;SDS011;26861;51.824;4.682;2022-08-01T09:17:03;4.28;;;1.10;;
41115;SDS011;26861;51.824;4.682;2022-08-01T09:19:44;7.47;;;1.40;;
41115;SDS011;26861;51.824;4.682;2022-08-01T09:22:18;3.90;;;1.20;;
41115;SDS011;26861;51.824;4.682;2022-08-01T09:27:31;6.28;;;1.30;;
41115;SDS011;26861;51.824;4.682;2022-08-01T09:30:07;3.38;;;1.17;;
41115;SDS011;26861;51.824;4.682;2022-08-01T09:32:53;3.17;;;1.48;;
41115;SDS011;26861;51.824;4.682;2022-08-01T09:35:29;3.30;;;1.10;;
41115;SDS011;26861;51.824;4.682;2022-08-01T09:38:14;5.75;;;1.77;;
41115;SDS011;26861;51.824;4.682;2022-08-01T09:40:51;3.60;;;1.63;;
41115;SDS011;26861;51.824;4.682;2022-08-01T09:43:23;6.63;;;1.50;;
41115;SDS011;26861;51.824;4.682;2022-08-01T09:45:50;5.43;;;1.85;;
41115;SDS011;26861;51.824;4.682;2022-08-01T09:48:16;6.90;;;1.52;;
41115;SDS011;26861;51.824;4.682;2022-08-01T09:50:44;3.75;;;1.40;;
41115;SDS011;26861;51.824;4.682;2022-08-01T09:53:11;7.93;;;2.10;;
41115;SDS011;26861;51.824;4.682;2022-08-01T09:55:38;6.22;;;1.80;;
41115;SDS011;26861;51.824;4.682;2022-08-01T09:58:05;2.75;;;1.48;;
41115;SDS011;26861;51.824;4.682;2022-08-01T10:00:31;4.15;;;1.20;;
41115;SDS011;26861;51.824;4.682;2022-08-01T10:02:58;4.50;;;1.58;;
41115;SDS011;26861;51.824;4.682;2022-08-01T10:05:31;5.82;;;1.70;;
41115;SDS011;26861;51.824;4.682;2022-08-01T10:07:58;3.53;;;1.10;;
41115;SDS011;26861;51.824;4.682;2022-08-01T10:10:27;6.10;;;1.27;;
41115;SDS011;26861;51.824;4.682;2022-08-01T10:12:53;4.32;;;1.63;;
41115;SDS011;26861;51.824;4.682;2022-08-01T10:15:21;6.97;;;1.40;;
41115;SDS011;26861;51.824;4.682;2022-08-01T10:17:52;3.92;;;1.30;;
41115;SDS011;26861;51.824;4.682;2022-08-01T10:20:21;4.97;;;1.42;;
41115;SDS011;26861;51.824;4.682;2022-08-01T10:22:49;4.50;;;1.47;;
41115;SDS011;26861;51.824;4.682;2022-08-01T10:25:15;5.10;;;1.42;;
41115;SDS011;26861;51.824;4.682;2022-08-01T10:27:43;6.78;;;1.30;;
41115;SDS011;26861;51.824;4.682;2022-08-01T10:30:12;2.80;;;1.08;;
41115;SDS011;26861;51.824;4.682;2022-08-01T10:32:38;4.03;;;1.15;;
41115;SDS011;26861;51.824;4.682;2022-08-01T10:35:07;5.28;;;1.45;;
41115;SDS011;26861;51.824;4.682;2022-08-01T10:37:34;3.45;;;1.25;;
41115;SDS011;26861;51.824;4.682;2022-08-01T10:40:00;5.40;;;1.05;;
41115;SDS011;26861;51.824;4.682;2022-08-01T10:42:26;7.13;;;1.60;;
41115;SDS011;26861;51.824;4.682;2022-08-01T10:44:53;5.90;;;1.30;;
41115;SDS011;26861;51.824;4.682;2022-08-01T10:47:23;5.07;;;1.60;;
41115;SDS011;26861;51.824;4.682;2022-08-01T10:50:05;4.00;;;0.75;;
41115;SDS011;26861;51.824;4.682;2022-08-01T10:52:38;4.50;;;1.20;;
41115;SDS011;26861;51.824;4.682;2022-08-01T10:55:04;3.95;;;1.38;;
41115;SDS011;26861;51.824;4.682;2022-08-01T10:57:44;5.30;;;1.40;;
41115;SDS011;26861;51.824;4.682;2022-08-01T11:00:17;4.75;;;1.20;;
41115;SDS011;26861;51.824;4.682;2022-08-01T11:02:44;4.55;;;1.15;;
41115;SDS011;26861;51.824;4.682;2022-08-01T11:05:26;2.90;;;1.02;;
41115;SDS011;26861;51.824;4.682;2022-08-01T11:07:55;3.60;;;1.13;;
41115;SDS011;26861;51.824;4.682;2022-08-01T11:10:28;4.35;;;1.20;;
41115;SDS011;26861;51.824;4.682;2022-08-01T11:13:04;3.70;;;0.93;;
41115;SDS011;26861;51.824;4.682;2022-08-01T11:15:32;3.97;;;1.10;;
41115;SDS011;26861;51.824;4.682;2022-08-01T11:18:00;2.97;;;1.00;;
41115;SDS011;26861;51.824;4.682;2022-08-01T11:20:27;3.47;;;1.20;;
41115;SDS011;26861;51.824;4.682;2022-08-01T11:30:49;2.90;;;1.02;;
41115;SDS011;26861;51.824;4.682;2022-08-01T11:38:35;3.92;;;1.00;;
41115;SDS011;26861;51.824;4.682;2022-08-01T11:43:58;4.20;;;1.10;;
41115;SDS011;26861;51.824;4.682;2022-08-01T11:52:04;6.13;;;1.00;;
41115;SDS011;26861;51.824;4.682;2022-08-01T11:54:35;1.52;;;0.77;;
41115;SDS011;26861;51.824;4.682;2022-08-01T11:57:06;2.35;;;1.00;;
41115;SDS011;26861;51.824;4.682;2022-08-01T11:59:37;2.15;;;0.80;;
41115;SDS011;26861;51.824;4.682;2022-08-01T12:02:04;3.33;;;0.70;;
41115;SDS011;26861;51.824;4.682;2022-08-01T12:07:19;2.33;;;0.80;;
41115;SDS011;26861;51.824;4.682;2022-08-01T12:09:45;2.65;;;0.98;;
41115;SDS011;26861;51.824;4.682;2022-08-01T12:12:11;2.75;;;1.10;;
41115;SDS011;26861;51.824;4.682;2022-08-01T12:14:43;3.55;;;1.10;;
41115;SDS011;26861;51.824;4.682;2022-08-01T12:17:10;3.20;;;0.90;;
41115;SDS011;26861;51.824;4.682;2022-08-01T12:19:36;4.95;;;1.15;;
41115;SDS011;26861;51.824;4.682;2022-08-01T12:22:06;4.53;;;1.30;;
41115;SDS011;26861;51.824;4.682;2022-08-01T12:24:36;4.85;;;1.15;;
41115;SDS011;26861;51.824;4.682;2022-08-01T12:27:04;2.38;;;0.95;;
41115;SDS011;26861;51.824;4.682;2022-08-01T12:29:34;3.65;;;1.10;;
41115;SDS011;26861;51.824;4.682;2022-08-01T12:31:59;2.47;;;0.80;;
41115;SDS011;26861;51.824;4.682;2022-08-01T12:34:26;2.88;;;1.02;;
41115;SDS011;26861;51.824;4.682;2022-08-01T12:36:54;2.28;;;0.90;;
41115;SDS011;26861;51.824;4.682;2022-08-01T12:39:21;3.55;;;0.90;;
41115;SDS011;26861;51.824;4.682;2022-08-01T12:41:47;2.40;;;1.00;;
41115;SDS011;26861;51.824;4.682;2022-08-01T12:44:13;1.90;;;0.90;;
41115;SDS011;26861;51.824;4.682;2022-08-01T12:46:40;1.65;;;0.73;;
41115;SDS011;26861;51.824;4.682;2022-08-01T12:49:06;2.88;;;0.80;;
41115;SDS011;26861;51.824;4.682;2022-08-01T12:51:32;3.05;;;0.98;;
41115;SDS011;26861;51.824;4.682;2022-08-01T12:53:58;4.57;;;0.95;;
41115;SDS011;26861;51.824;4.682;2022-08-01T12:56:31;3.40;;;0.85;;
41115;SDS011;26861;51.824;4.682;2022-08-01T12:58:58;1.45;;;0.70;;
41115;SDS011;26861;51.824;4.682;2022-08-01T13:01:25;2.38;;;0.93;;
41115;SDS011;26861;51.824;4.682;2022-08-01T13:04:01;1.75;;;0.90;;
41115;SDS011;26861;51.824;4.682;2022-08-01T13:06:31;3.88;;;0.88;;
41115;SDS011;26861;51.824;4.682;2022-08-01T13:09:07;1.75;;;0.55;;
41115;SDS011;26861;51.824;4.682;2022-08-01T13:11:36;1.23;;;0.88;;
41115;SDS011;26861;51.824;4.682;2022-08-01T13:14:02;2.38;;;0.90;;
41115;SDS011;26861;51.824;4.682;2022-08-01T13:16:28;3.00;;;1.10;;
41115;SDS011;26861;51.824;4.682;2022-08-01T13:18:55;2.38;;;0.90;;
41115;SDS011;26861;51.824;4.682;2022-08-01T13:21:25;1.48;;;0.90;;
41115;SDS011;26861;51.824;4.682;2022-08-01T13:24:09;2.42;;;0.90;;
41115;SDS011;26861;51.824;4.682;2022-08-01T13:26:51;4.05;;;0.98;;
41115;SDS011;26861;51.824;4.682;2022-08-01T13:29:21;3.10;;;0.73;;
41115;SDS011;26861;51.824;4.682;2022-08-01T13:31:53;3.25;;;1.13;;
41115;SDS011;26861;51.824;4.682;2022-08-01T13:34:28;1.80;;;0.63;;
41115;SDS011;26861;51.824;4.682;2022-08-01T13:36:58;2.72;;;1.05;;
41115;SDS011;26861;51.824;4.682;2022-08-01T13:39:23;2.05;;;0.80;;
41115;SDS011;26861;51.824;4.682;2022-08-01T13:42:08;4.18;;;1.10;;
41115;SDS011;26861;51.824;4.682;2022-08-01T13:44:38;2.97;;;0.82;;
41115;SDS011;26861;51.824;4.682;2022-08-01T13:47:05;2.03;;;0.80;;
41115;SDS011;26861;51.824;4.682;2022-08-01T13:49:31;2.35;;;1.00;;
41115;SDS011;26861;51.824;4.682;2022-08-01T13:51:58;1.80;;;0.60;;
41115;SDS011;26861;51.824;4.682;2022-08-01T13:54:24;2.67;;;0.90;;
41115;SDS011;26861;51.824;4.682;2022-08-01T13:56:50;3.22;;;0.90;;
41115;SDS011;26861;51.824;4.682;2022-08-01T13:59:17;1.73;;;0.77;;
41115;SDS011;26861;51.824;4.682;2022-08-01T14:01:45;2.15;;;0.68;;
41115;SDS011;26861;51.824;4.682;2022-08-01T14:04:12;2.25;;;0.93;;
41115;SDS011;26861;51.824;4.682;2022-08-01T14:06:38;3.05;;;0.88;;
41115;SDS011;26861;51.824;4.682;2022-08-01T14:09:04;3.97;;;1.10;;
41115;SDS011;26861;51.824;4.682;2022-08-01T14:11:30;2.35;;;1.02;;
41115;SDS011;26861;51.824;4.682;2022-08-01T14:13:56;4.30;;;1.00;;
41115;SDS011;26861;51.824;4.682;2022-08-01T14:16:22;2.83;;;0.88;;
41115;SDS011;26861;51.824;4.682;2022-08-01T14:18:48;2.42;;;0.75;;
41115;SDS011;26861;51.824;4.682;2022-08-01T14:21:13;2.75;;;0.75;;
41115;SDS011;26861;51.824;4.682;2022-08-01T14:23:40;1.83;;;0.70;;
41115;SDS011;26861;51.824;4.682;2022-08-01T14:26:07;4.20;;;1.00;;
41115;SDS011;26861;51.824;4.682;2022-08-01T14:28:33;1.67;;;0.80;;
41115;SDS011;26861;51.824;4.682;2022-08-01T14:30:59;3.70;;;0.82;;
41115;SDS011;26861;51.824;4.682;2022-08-01T14:33:25;1.48;;;0.70;;
41115;SDS011;26861;51.824;4.682;2022-08-01T14:35:52;1.83;;;0.98;;
41115;SDS011;26861;51.824;4.682;2022-08-01T14:38:17;2.20;;;0.68;;
41115;SDS011;26861;51.824;4.682;2022-08-01T14:40:43;1.75;;;0.65;;
41115;SDS011;26861;51.824;4.682;2022-08-01T14:43:11;1.75;;;0.60;;
41115;SDS011;26861;51.824;4.682;2022-08-01T14:45:38;2.45;;;0.98;;
41115;SDS011;26861;51.824;4.682;2022-08-01T14:48:04;1.40;;;0.70;;
41115;SDS011;26861;51.824;4.682;2022-08-01T14:50:29;1.92;;;0.80;;
41115;SDS011;26861;51.824;4.682;2022-08-01T14:52:55;2.15;;;0.60;;
41115;SDS011;26861;51.824;4.682;2022-08-01T14:55:21;3.95;;;1.15;;
41115;SDS011;26861;51.824;4.682;2022-08-01T14:57:50;2.05;;;1.00;;
41115;SDS011;26861;51.824;4.682;2022-08-01T15:00:15;3.45;;;1.02;;
41115;SDS011;26861;51.824;4.682;2022-08-01T15:02:41;1.85;;;0.70;;
41115;SDS011;26861;51.824;4.682;2022-08-01T15:05:07;3.35;;;0.88;;
41115;SDS011;26861;51.824;4.682;2022-08-01T15:07:33;4.80;;;0.77;;
41115;SDS011;26861;51.824;4.682;2022-08-01T15:09:59;2.92;;;1.00;;
41115;SDS011;26861;51.824;4.682;2022-08-01T15:12:26;2.25;;;0.80;;
41115;SDS011;26861;51.824;4.682;2022-08-01T15:14:51;2.75;;;0.70;;
41115;SDS011;26861;51.824;4.682;2022-08-01T15:17:18;1.60;;;0.73;;
41115;SDS011;26861;51.824;4.682;2022-08-01T15:19:47;1.75;;;0.93;;
41115;SDS011;26861;51.824;4.682;2022-08-01T15:22:14;1.67;;;0.82;;
41115;SDS011;26861;51.824;4.682;2022-08-01T15:24:41;3.97;;;0.95;;
41115;SDS011;26861;51.824;4.682;2022-08-01T15:27:07;2.63;;;0.70;;
41115;SDS011;26861;51.824;4.682;2022-08-01T15:29:33;3.55;;;1.13;;
41115;SDS011;26861;51.824;4.682;2022-08-01T15:32:00;3.05;;;0.82;;
41115;SDS011;26861;51.824;4.682;2022-08-01T15:34:26;0.95;;;0.75;;
41115;SDS011;26861;51.824;4.682;2022-08-01T15:36:51;2.75;;;0.85;;
41115;SDS011;26861;51.824;4.682;2022-08-01T15:39:17;1.65;;;0.77;;
41115;SDS011;26861;51.824;4.682;2022-08-01T15:41:42;1.42;;;0.70;;
41115;SDS011;26861;51.824;4.682;2022-08-01T15:44:08;3.97;;;0.88;;
41115;SDS011;26861;51.824;4.682;2022-08-01T15:46:34;2.03;;;0.60;;
41115;SDS011;26861;51.824;4.682;2022-08-01T15:49:03;2.47;;;0.80;;
41115;SDS011;26861;51.824;4.682;2022-08-01T15:51:30;2.25;;;0.80;;
41115;SDS011;26861;51.824;4.682;2022-08-01T15:53:56;2.50;;;0.73;;
41115;SDS011;26861;51.824;4.682;2022-08-01T15:56:22;3.35;;;1.00;;
41115;SDS011;26861;51.824;4.682;2022-08-01T15:58:47;2.22;;;0.70;;
41115;SDS011;26861;51.824;4.682;2022-08-01T16:01:13;1.63;;;0.70;;
41115;SDS011;26861;51.824;4.682;2022-08-01T16:03:39;3.22;;;0.82;;
41115;SDS011;26861;51.824;4.682;2022-08-01T16:06:05;1.55;;;0.90;;
41115;SDS011;26861;51.824;4.682;2022-08-01T16:08:32;2.60;;;0.90;;
41115;SDS011;26861;51.824;4.682;2022-08-01T16:10:58;3.78;;;0.90;;
41115;SDS011;26861;51.824;4.682;2022-08-01T16:13:24;2.42;;;0.80;;
41115;SDS011;26861;51.824;4.682;2022-08-01T16:15:49;2.35;;;0.60;;
41115;SDS011;26861;51.824;4.682;2022-08-01T16:18:15;1.38;;;0.93;;
41115;SDS011;26861;51.824;4.682;2022-08-01T16:20:41;1.85;;;0.85;;
41115;SDS011;26861;51.824;4.682;2022-08-01T16:23:07;1.30;;;0.77;;
41115;SDS011;26861;51.824;4.682;2022-08-01T16:25:34;3.47;;;1.00;;
41115;SDS011;26861;51.824;4.682;2022-08-01T16:28:00;2.03;;;0.77;;
41115;SDS011;26861;51.824;4.682;2022-08-01T16:30:26;2.38;;;0.60;;
41115;SDS011;26861;51.824;4.682;2022-08-01T16:32:51;1.52;;;0.80;;
41115;SDS011;26861;51.824;4.682;2022-08-01T16:35:18;2.53;;;0.75;;
41115;SDS011;26861;51.824;4.682;2022-08-01T16:37:43;2.28;;;0.60;;
41115;SDS011;26861;51.824;4.682;2022-08-01T16:40:09;1.67;;;0.70;;
41115;SDS011;26861;51.824;4.682;2022-08-01T16:42:35;2.38;;;0.85;;
41115;SDS011;26861;51.824;4.682;2022-08-01T16:45:01;2.03;;;0.70;;
41115;SDS011;26861;51.824;4.682;2022-08-01T16:47:27;3.10;;;0.80;;
41115;SDS011;26861;51.824;4.682;2022-08-01T16:49:53;1.55;;;0.60;;
41115;SDS011;26861;51.824;4.682;2022-08-01T16:52:19;3.25;;;0.77;;
41115;SDS011;26861;51.824;4.682;2022-08-01T16:54:45;1.30;;;0.77;;
41115;SDS011;26861;51.824;4.682;2022-08-01T16:57:11;1.42;;;0.70;;
41115;SDS011;26861;51.824;4.682;2022-08-01T16:59:37;2.55;;;0.70;;
41115;SDS011;26861;51.824;4.682;2022-08-01T17:02:06;5.85;;;0.73;;
41115;SDS011;26861;51.824;4.682;2022-08-01T17:04:32;2.95;;;1.02;;
41115;SDS011;26861;51.824;4.682;2022-08-01T17:06:57;4.38;;;0.80;;
41115;SDS011;26861;51.824;4.682;2022-08-01T17:09:25;2.00;;;0.73;;
41115;SDS011;26861;51.824;4.682;2022-08-01T17:11:51;4.30;;;0.55;;
41115;SDS011;26861;51.824;4.682;2022-08-01T17:14:17;3.70;;;0.90;;
41115;SDS011;26861;51.824;4.682;2022-08-01T17:16:43;2.53;;;0.63;;
41115;SDS011;26861;51.824;4.682;2022-08-01T17:19:11;6.10;;;1.02;;
41115;SDS011;26861;51.824;4.682;2022-08-01T17:21:36;2.15;;;0.77;;
41115;SDS011;26861;51.824;4.682;2022-08-01T17:24:02;2.08;;;0.80;;
41115;SDS011;26861;51.824;4.682;2022-08-01T17:26:28;2.25;;;0.82;;
41115;SDS011;26861;51.824;4.682;2022-08-01T17:28:55;1.88;;;0.73;;
41115;SDS011;26861;51.824;4.682;2022-08-01T17:31:21;2.38;;;0.75;;
41115;SDS011;26861;51.824;4.682;2022-08-01T17:33:47;1.55;;;0.80;;
41115;SDS011;26861;51.824;4.682;2022-08-01T17:36:13;3.65;;;0.85;;
41115;SDS011;26861;51.824;4.682;2022-08-01T17:38:39;2.22;;;0.70;;
41115;SDS011;26861;51.824;4.682;2022-08-01T17:41:05;2.17;;;0.90;;
41115;SDS011;26861;51.824;4.682;2022-08-01T17:43:31;2.67;;;0.65;;
41115;SDS011;26861;51.824;4.682;2022-08-01T17:45:57;1.80;;;0.80;;
41115;SDS011;26861;51.824;4.682;2022-08-01T17:48:23;1.60;;;0.70;;
41115;SDS011;26861;51.824;4.682;2022-08-01T17:50:53;1.75;;;0.60;;
41115;SDS011;26861;51.824;4.682;2022-08-01T17:53:19;3.65;;;0.90;;
41115;SDS011;26861;51.824;4.682;2022-08-01T17:55:47;1.75;;;0.77;;
41115;SDS011;26861;51.824;4.682;2022-08-01T17:58:13;3.03;;;0.82;;
41115;SDS011;26861;51.824;4.682;2022-08-01T18:00:44;1.70;;;0.60;;
41115;SDS011;26861;51.824;4.682;2022-08-01T18:03:11;0.93;;;0.60;;
41115;SDS011;26861;51.824;4.682;2022-08-01T18:05:41;3.90;;;1.00;;
41115;SDS011;26861;51.824;4.682;2022-08-01T18:08:07;3.03;;;0.85;;
41115;SDS011;26861;51.824;4.682;2022-08-01T18:10:33;3.05;;;0.90;;
41115;SDS011;26861;51.824;4.682;2022-08-01T18:12:59;2.85;;;0.63;;
41115;SDS011;26861;51.824;4.682;2022-08-01T18:15:25;3.72;;;1.00;;
41115;SDS011;26861;51.824;4.682;2022-08-01T18:17:52;3.50;;;0.80;;
41115;SDS011;26861;51.824;4.682;2022-08-01T18:20:19;2.58;;;0.93;;
41115;SDS011;26861;51.824;4.682;2022-08-01T18:22:45;3.33;;;0.90;;
41115;SDS011;26861;51.824;4.682;2022-08-01T18:25:11;3.47;;;1.02;;
41115;SDS011;26861;51.824;4.682;2022-08-01T18:27:37;1.75;;;0.68;;
41115;SDS011;26861;51.824;4.682;2022-08-01T18:30:05;5.38;;;1.05;;
41115;SDS011;26861;51.824;4.682;2022-08-01T18:32:32;4.32;;;0.93;;
41115;SDS011;26861;51.824;4.682;2022-08-01T18:35:00;5.53;;;1.10;;
41115;SDS011;26861;51.824;4.682;2022-08-01T18:37:25;4.75;;;1.08;;
41115;SDS011;26861;51.824;4.682;2022-08-01T18:39:51;4.68;;;1.00;;
41115;SDS011;26861;51.824;4.682;2022-08-01T18:42:17;4.13;;;1.15;;
41115;SDS011;26861;51.824;4.682;2022-08-01T18:44:43;2.55;;;1.30;;
41115;SDS011;26861;51.824;4.682;2022-08-01T18:47:09;1.88;;;0.77;;
41115;SDS011;26861;51.824;4.682;2022-08-01T18:49:35;3.75;;;0.63;;
41115;SDS011;26861;51.824;4.682;2022-08-01T18:52:01;2.53;;;0.63;;
41115;SDS011;26861;51.824;4.682;2022-08-01T18:54:27;4.30;;;1.23;;
41115;SDS011;26861;51.824;4.682;2022-08-01T18:56:53;3.38;;;0.70;;
41115;SDS011;26861;51.824;4.682;2022-08-01T18:59:19;2.58;;;0.73;;
41115;SDS011;26861;51.824;4.682;2022-08-01T19:01:45;3.10;;;0.73;;
41115;SDS011;26861;51.824;4.682;2022-08-01T19:04:11;4.35;;;0.98;;
41115;SDS011;26861;51.824;4.682;2022-08-01T19:06:37;1.98;;;0.73;;
41115;SDS011;26861;51.824;4.682;2022-08-01T19:09:03;2.95;;;1.27;;
41115;SDS011;26861;51.824;4.682;2022-08-01T19:11:30;4.65;;;1.00;;
41115;SDS011;26861;51.824;4.682;2022-08-01T19:13:56;4.53;;;1.20;;
41115;SDS011;26861;51.824;4.682;2022-08-01T19:16:22;3.42;;;0.82;;
41115;SDS011;26861;51.824;4.682;2022-08-01T19:18:48;2.40;;;0.90;;
41115;SDS011;26861;51.824;4.682;2022-08-01T19:21:14;2.83;;;0.70;;
41115;SDS011;26861;51.824;4.682;2022-08-01T19:23:39;2.30;;;0.77;;
41115;SDS011;26861;51.824;4.682;2022-08-01T19:26:24;2.53;;;0.80;;
41115;SDS011;26861;51.824;4.682;2022-08-01T19:29:00;3.05;;;0.70;;
41115;SDS011;26861;51.824;4.682;2022-08-01T19:34:02;1.88;;;0.90;;
41115;SDS011;26861;51.824;4.682;2022-08-01T19:36:38;1.00;;;0.75;;
41115;SDS011;26861;51.824;4.682;2022-08-01T19:39:07;1.92;;;0.80;;
41115;SDS011;26861;51.824;4.682;2022-08-01T19:41:34;4.10;;;0.70;;
41115;SDS011;26861;51.824;4.682;2022-08-01T19:44:00;4.75;;;0.90;;
41115;SDS011;26861;51.824;4.682;2022-08-01T19:48:58;2.88;;;0.82;;
41115;SDS011;26861;51.824;4.682;2022-08-01T19:51:23;2.08;;;0.70;;
41115;SDS011;26861;51.824;4.682;2022-08-01T19:53:53;3.55;;;0.75;;
41115;SDS011;26861;51.824;4.682;2022-08-01T19:56:19;1.85;;;0.55;;
41115;SDS011;26861;51.824;4.682;2022-08-01T19:58:47;1.60;;;0.60;;
41115;SDS011;26861;51.824;4.682;2022-08-01T20:01:16;6.20;;;1.42;;
41115;SDS011;26861;51.824;4.682;2022-08-01T20:03:42;3.55;;;0.77;;
41115;SDS011;26861;51.824;4.682;2022-08-01T20:06:16;7.35;;;0.88;;
41115;SDS011;26861;51.824;4.682;2022-08-01T20:08:42;4.18;;;0.80;;
41115;SDS011;26861;51.824;4.682;2022-08-01T20:11:08;4.95;;;0.77;;
41115;SDS011;26861;51.824;4.682;2022-08-01T20:13:36;1.50;;;0.45;;
41115;SDS011;26861;51.824;4.682;2022-08-01T20:16:04;1.15;;;0.80;;
41115;SDS011;26861;51.824;4.682;2022-08-01T20:18:31;4.35;;;0.65;;
41115;SDS011;26861;51.824;4.682;2022-08-01T20:20:57;2.42;;;0.50;;
41115;SDS011;26861;51.824;4.682;2022-08-01T20:23:24;7.43;;;0.85;;
41115;SDS011;26861;51.824;4.682;2022-08-01T20:25:51;20.23;;;1.08;;
41115;SDS011;26861;51.824;4.682;2022-08-01T20:28:23;1.63;;;0.57;;
41115;SDS011;26861;51.824;4.682;2022-08-01T20:30:55;3.83;;;0.63;;
41115;SDS011;26861;51.824;4.682;2022-08-01T20:33:23;2.08;;;0.77;;
41115;SDS011;26861;51.824;4.682;2022-08-01T20:35:49;3.08;;;0.70;;
41115;SDS011;26861;51.824;4.682;2022-08-01T20:38:17;3.85;;;0.68;;
41115;SDS011;26861;51.824;4.682;2022-08-01T20:40:48;2.95;;;0.50;;
41115;SDS011;26861;51.824;4.682;2022-08-01T20:43:19;5.05;;;1.00;;
41115;SDS011;26861;51.824;4.682;2022-08-01T20:45:45;2.42;;;0.80;;
41115;SDS011;26861;51.824;4.682;2022-08-01T20:48:12;3.03;;;0.65;;
41115;SDS011;26861;51.824;4.682;2022-08-01T20:50:41;1.27;;;0.57;;
41115;SDS011;26861;51.824;4.682;2022-08-01T20:53:27;2.40;;;0.80;;
41115;SDS011;26861;51.824;4.682;2022-08-01T20:55:53;2.33;;;0.88;;
41115;SDS011;26861;51.824;4.682;2022-08-01T21:01:29;1.20;;;0.70;;
41115;SDS011;26861;51.824;4.682;2022-08-01T21:06:35;3.13;;;0.90;;
41115;SDS011;26861;51.824;4.682;2022-08-01T21:09:09;1.23;;;0.60;;
41115;SDS011;26861;51.824;4.682;2022-08-01T21:11:45;4.50;;;1.02;;
41115;SDS011;26861;51.824;4.682;2022-08-01T21:14:12;4.70;;;1.05;;
41115;SDS011;26861;51.824;4.682;2022-08-01T21:16:42;2.75;;;0.80;;
41115;SDS011;26861;51.824;4.682;2022-08-01T21:19:18;5.10;;;0.77;;
41115;SDS011;26861;51.824;4.682;2022-08-01T21:21:52;2.90;;;0.90;;
41115;SDS011;26861;51.824;4.682;2022-08-01T21:24:42;2.75;;;1.00;;
41115;SDS011;26861;51.824;4.682;2022-08-01T21:27:15;2.63;;;0.90;;
41115;SDS011;26861;51.824;4.682;2022-08-01T21:29:42;5.05;;;0.77;;
41115;SDS011;26861;51.824;4.682;2022-08-01T21:32:12;2.70;;;0.98;;
41115;SDS011;26861;51.824;4.682;2022-08-01T21:34:40;1.38;;;0.60;;
41115;SDS011;26861;51.824;4.682;2022-08-01T21:37:10;3.70;;;0.68;;
41115;SDS011;26861;51.824;4.682;2022-08-01T21:39:39;1.42;;;0.68;;
41115;SDS011;26861;51.824;4.682;2022-08-01T21:42:08;2.58;;;0.80;;
41115;SDS011;26861;51.824;4.682;2022-08-01T21:44:41;1.30;;;0.60;;
41115;SDS011;26861;51.824;4.682;2022-08-01T21:47:09;1.10;;;0.70;;
41115;SDS011;26861;51.824;4.682;2022-08-01T21:49:35;2.33;;;0.60;;
41115;SDS011;26861;51.824;4.682;2022-08-01T21:52:06;1.48;;;0.60;;
41115;SDS011;26861;51.824;4.682;2022-08-01T21:54:51;2.75;;;0.95;;
41115;SDS011;26861;51.824;4.682;2022-08-01T21:57:42;5.78;;;0.70;;
41115;SDS011;26861;51.824;4.682;2022-08-01T22:00:19;1.45;;;0.77;;
41115;SDS011;26861;51.824;4.682;2022-08-01T22:05:35;2.22;;;0.60;;
41115;SDS011;26861;51.824;4.682;2022-08-01T22:08:02;2.67;;;0.63;;
41115;SDS011;26861;51.824;4.682;2022-08-01T22:10:31;1.10;;;0.60;;
41115;SDS011;26861;51.824;4.682;2022-08-01T22:13:01;2.55;;;0.98;;
41115;SDS011;26861;51.824;4.682;2022-08-01T22:15:27;1.52;;;0.70;;
41115;SDS011;26861;51.824;4.682;2022-08-01T22:17:55;2.50;;;0.60;;
41115;SDS011;26861;51.824;4.682;2022-08-01T22:20:22;0.93;;;0.60;;
41115;SDS011;26861;51.824;4.682;2022-08-01T22:22:49;2.42;;;0.90;;
41115;SDS011;26861;51.824;4.682;2022-08-01T22:25:15;2.40;;;0.75;;
41115;SDS011;26861;51.824;4.682;2022-08-01T22:27:41;0.95;;;0.63;;
41115;SDS011;26861;51.824;4.682;2022-08-01T22:30:09;1.15;;;0.60;;
41115;SDS011;26861;51.824;4.682;2022-08-01T22:32:40;1.75;;;0.52;;
41115;SDS011;26861;51.824;4.682;2022-08-01T22:35:08;0.70;;;0.57;;
41115;SDS011;26861;51.824;4.682;2022-08-01T22:37:38;1.63;;;0.63;;
41115;SDS011;26861;51.824;4.682;2022-08-01T22:40:05;1.10;;;0.40;;
41115;SDS011;26861;51.824;4.682;2022-08-01T22:45:59;1.00;;;0.52;;
41115;SDS011;26861;51.824;4.682;2022-08-01T22:48:48;1.30;;;0.50;;
41115;SDS011;26861;51.824;4.682;2022-08-01T22:51:25;2.38;;;0.70;;
41115;SDS011;26861;51.824;4.682;2022-08-01T22:54:06;4.15;;;0.65;;
41115;SDS011;26861;51.824;4.682;2022-08-01T22:56:37;1.15;;;0.50;;
41115;SDS011;26861;51.824;4.682;2022-08-01T23:01:45;2.00;;;0.68;;
41115;SDS011;26861;51.824;4.682;2022-08-01T23:04:22;0.73;;;0.43;;
41115;SDS011;26861;51.824;4.682;2022-08-01T23:07:06;0.90;;;0.70;;
41115;SDS011;26861;51.824;4.682;2022-08-01T23:09:34;1.63;;;0.60;;
41115;SDS011;26861;51.824;4.682;2022-08-01T23:12:03;2.53;;;0.77;;
41115;SDS011;26861;51.824;4.682;2022-08-01T23:14:31;1.20;;;0.75;;
41115;SDS011;26861;51.824;4.682;2022-08-01T23:16:57;1.67;;;0.70;;
41115;SDS011;26861;51.824;4.682;2022-08-01T23:21:54;1.33;;;0.52;;
41115;SDS011;26861;51.824;4.682;2022-08-01T23:24:21;1.13;;;0.40;;
41115;SDS011;26861;51.824;4.682;2022-08-01T23:26:47;2.00;;;0.60;;
41115;SDS011;26861;51.824;4.682;2022-08-01T23:29:14;1.65;;;0.47;;
41115;SDS011;26861;51.824;4.682;2022-08-01T23:31:40;1.75;;;0.60;;
41115;SDS011;26861;51.824;4.682;2022-08-01T23:34:06;0.50;;;0.40;;
41115;SDS011;26861;51.824;4.682;2022-08-01T23:36:31;0.93;;;0.55;;
41115;SDS011;26861;51.824;4.682;2022-08-01T23:38:57;0.65;;;0.43;;
41115;SDS011;26861;51.824;4.682;2022-08-01T23:41:23;1.55;;;0.50;;
41115;SDS011;26861;51.824;4.682;2022-08-01T23:43:49;1.60;;;0.70;;
41115;SDS011;26861;51.824;4.682;2022-08-01T23:46:15;1.40;;;0.60;;
41115;SDS011;26861;51.824;4.682;2022-08-01T23:48:41;2.88;;;0.55;;
41115;SDS011;26861;51.824;4.682;2022-08-01T23:51:07;1.42;;;0.60;;
41115;SDS011;26861;51.824;4.682;2022-08-01T23:53:32;1.63;;;0.75;;
41115;SDS011;26861;51.824;4.682;2022-08-01T23:55:59;1.02;;;0.70;;
41115;SDS011;26861;51.824;4.682;2022-08-01T23:58:25;0.75;;;0.57;;
